Time;durP1;ratioP1;P1;durP2;ratioP2;P2;SDS_P1;SDS_P2;PMS_P1;PMS_P2;Temp;Humidity;BMP_temperature;BMP_pressure;BME280_temperature;BME280_humidity;BME280_pressure;Samples;Min_cycle;Max_cycle;Signal;HPM_P1;HPM_P2
2021/07/23 00:00:22;;;;;;;9.50;6.78;;;20.10;97.40;;;;;;4962465;28;20047;-80
2021/07/23 00:02:49;;;;;;;11.82;6.90;;;20.10;97.40;;;;;;4960043;28;20134;-81
2021/07/23 00:05:16;;;;;;;9.93;7.20;;;20.10;97.60;;;;;;4975338;28;20053;-80
2021/07/23 00:07:45;;;;;;;11.38;7.43;;;20.10;97.50;;;;;;4975747;28;20054;-80
2021/07/23 00:10:12;;;;;;;11.20;7.63;;;20.10;97.60;;;;;;4976056;28;20449;-80
2021/07/23 00:12:39;;;;;;;11.95;7.45;;;20.00;97.40;;;;;;4976184;28;20134;-79
2021/07/23 00:15:08;;;;;;;10.73;7.35;;;20.00;97.50;;;;;;4985938;28;20077;-80
2021/07/23 00:17:35;;;;;;;11.30;7.63;;;20.00;97.60;;;;;;4984832;28;20474;-80
2021/07/23 00:20:02;;;;;;;9.35;7.25;;;20.00;97.60;;;;;;4986201;28;20139;-80
2021/07/23 00:22:29;;;;;;;9.23;6.75;;;20.00;97.50;;;;;;4985895;28;20129;-80
2021/07/23 00:24:57;;;;;;;9.95;7.18;;;19.90;97.50;;;;;;4985346;28;20074;-80
2021/07/23 00:27:24;;;;;;;9.68;7.07;;;19.90;97.40;;;;;;4968145;28;20082;-80
2021/07/23 00:29:51;;;;;;;9.48;6.88;;;19.80;97.40;;;;;;4965352;28;20129;-80
2021/07/23 00:32:18;;;;;;;11.13;7.05;;;19.80;97.60;;;;;;4965699;28;20074;-80
2021/07/23 00:34:45;;;;;;;10.38;7.25;;;19.70;97.80;;;;;;4964556;29;20126;-80
2021/07/23 00:37:12;;;;;;;12.27;7.85;;;19.70;97.90;;;;;;4955841;28;20051;-81
2021/07/23 00:39:40;;;;;;;9.18;7.10;;;19.70;97.70;;;;;;4959378;29;20111;-80
2021/07/23 00:42:09;;;;;;;10.57;6.85;;;19.60;97.80;;;;;;4966582;29;20146;-80
2021/07/23 00:44:36;;;;;;;10.68;7.03;;;19.50;97.90;;;;;;4960446;29;20139;-80
2021/07/23 00:47:03;;;;;;;9.32;6.50;;;19.50;98.20;;;;;;4967054;28;20134;-80
2021/07/23 00:49:31;;;;;;;9.25;6.97;;;19.40;98.40;;;;;;4968251;28;20043;-80
2021/07/23 00:51:58;;;;;;;11.95;7.75;;;19.50;98.50;;;;;;4956004;29;20134;-80
2021/07/23 00:54:28;;;;;;;10.63;7.43;;;19.50;98.50;;;;;;4955820;28;20511;-80
2021/07/23 00:56:57;;;;;;;11.32;7.72;;;19.50;98.40;;;;;;4962018;28;20071;-80
2021/07/23 00:59:25;;;;;;;11.18;7.63;;;19.50;98.40;;;;;;4961290;28;20107;-80
2021/07/23 01:01:52;;;;;;;11.23;7.75;;;19.50;98.40;;;;;;4965572;28;20141;-79
2021/07/23 01:04:20;;;;;;;11.02;7.40;;;19.50;98.40;;;;;;4977257;28;20145;-79
2021/07/23 01:06:47;;;;;;;9.70;6.88;;;19.40;98.30;;;;;;4967376;28;20126;-79
2021/07/23 01:09:14;;;;;;;10.68;7.35;;;19.40;98.40;;;;;;4955773;28;20138;-79
2021/07/23 01:11:44;;;;;;;11.70;7.55;;;19.40;98.40;;;;;;4974333;28;20608;-79
2021/07/23 01:14:11;;;;;;;11.27;8.02;;;19.30;98.50;;;;;;4974897;28;20129;-80
2021/07/23 01:16:40;;;;;;;11.95;8.23;;;19.30;98.50;;;;;;4966118;28;20516;-80
2021/07/23 01:19:10;;;;;;;11.75;8.05;;;19.30;98.50;;;;;;4955578;29;20456;-80
2021/07/23 01:21:37;;;;;;;10.65;7.40;;;19.20;98.50;;;;;;4954972;29;20058;-80
2021/07/23 01:24:06;;;;;;;9.30;6.85;;;19.20;98.70;;;;;;4971154;28;20552;-81
2021/07/23 01:26:33;;;;;;;11.27;7.40;;;19.20;98.90;;;;;;4968813;28;20122;-80
2021/07/23 01:29:00;;;;;;;10.90;7.13;;;19.20;99.00;;;;;;4962320;28;20047;-80
2021/07/23 01:31:27;;;;;;;11.85;6.85;;;19.20;99.00;;;;;;4974379;28;20043;-80
2021/07/23 01:33:54;;;;;;;9.63;6.80;;;19.20;99.00;;;;;;4974462;28;20075;-80
2021/07/23 01:36:22;;;;;;;11.73;7.60;;;19.20;99.20;;;;;;4965635;28;20058;-80
2021/07/23 01:38:52;;;;;;;9.75;7.25;;;19.20;99.10;;;;;;4958695;28;20051;-80
2021/07/23 01:41:21;;;;;;;10.70;7.45;;;19.20;99.10;;;;;;4977795;28;20065;-80
2021/07/23 01:43:48;;;;;;;11.07;7.40;;;19.20;99.00;;;;;;4969449;28;21161;-79
2021/07/23 01:46:15;;;;;;;10.57;7.35;;;19.20;99.00;;;;;;4959331;28;20047;-81
2021/07/23 01:48:42;;;;;;;11.18;7.80;;;19.20;99.00;;;;;;4958880;29;20051;-81
2021/07/23 01:51:09;;;;;;;11.85;7.60;;;19.20;98.90;;;;;;4959229;28;20472;-80
2021/07/23 01:53:36;;;;;;;10.18;6.72;;;19.10;98.90;;;;;;4958581;29;20387;-80
2021/07/23 01:56:04;;;;;;;10.73;7.65;;;19.10;99.10;;;;;;4962621;28;20077;-80
2021/07/23 01:58:34;;;;;;;11.07;7.63;;;19.10;99.10;;;;;;4970282;28;20086;-80
2021/07/23 02:01:01;;;;;;;10.88;7.22;;;19.10;99.10;;;;;;4958720;29;20051;-80
2021/07/23 02:03:28;;;;;;;11.23;7.50;;;19.10;99.10;;;;;;4958727;29;20134;-79
2021/07/23 02:05:55;;;;;;;10.60;7.25;;;19.00;99.10;;;;;;4958614;28;20584;-80
2021/07/23 02:08:22;;;;;;;10.25;6.82;;;19.10;99.20;;;;;;4958146;29;20051;-80
2021/07/23 02:10:49;;;;;;;9.48;6.63;;;19.10;99.20;;;;;;4958205;29;20416;-80
2021/07/23 02:13:16;;;;;;;10.52;7.30;;;19.10;99.20;;;;;;4966090;28;20046;-80
2021/07/23 02:15:45;;;;;;;9.88;7.07;;;19.00;99.10;;;;;;4977470;28;20137;-80
2021/07/23 02:18:12;;;;;;;10.13;7.25;;;19.10;99.10;;;;;;4977565;28;20505;-79
2021/07/23 02:20:39;;;;;;;10.23;7.15;;;19.10;99.00;;;;;;4977494;28;20053;-80
2021/07/23 02:23:06;;;;;;;11.65;7.30;;;19.00;99.00;;;;;;4977256;28;20047;-80
2021/07/23 02:25:33;;;;;;;10.60;7.28;;;19.10;98.90;;;;;;4977373;28;20129;-80
2021/07/23 02:28:01;;;;;;;13.02;7.80;;;19.00;98.70;;;;;;4968199;28;20154;-80
2021/07/23 02:30:28;;;;;;;9.90;7.15;;;19.00;98.60;;;;;;4958545;28;20055;-80
2021/07/23 02:32:56;;;;;;;10.90;7.40;;;18.90;98.80;;;;;;4958011;29;20050;-81
2021/07/23 02:35:23;;;;;;;9.88;7.30;;;18.80;98.90;;;;;;4959050;28;20125;-80
2021/07/23 02:37:50;;;;;;;11.10;7.20;;;18.80;99.10;;;;;;4957646;29;20129;-80
2021/07/23 02:40:17;;;;;;;10.73;7.18;;;18.80;99.30;;;;;;4960280;29;20043;-79
2021/07/23 02:42:44;;;;;;;11.18;7.00;;;18.80;99.30;;;;;;4971304;28;20141;-80
2021/07/23 02:45:12;;;;;;;10.95;7.45;;;18.80;99.40;;;;;;4976655;28;20145;-79
2021/07/23 02:47:39;;;;;;;10.52;7.15;;;18.80;99.30;;;;;;4976762;28;20047;-79
2021/07/23 02:50:09;;;;;;;9.90;7.47;;;18.70;99.20;;;;;;4976328;28;20513;-79
2021/07/23 02:52:36;;;;;;;11.57;7.57;;;18.70;99.30;;;;;;4976554;28;20145;-80
2021/07/23 02:55:04;;;;;;;12.05;7.68;;;18.80;99.30;;;;;;4968726;28;20450;-80
2021/07/23 02:57:31;;;;;;;11.52;7.88;;;18.80;99.20;;;;;;4967863;28;20054;-80
2021/07/23 02:59:58;;;;;;;11.95;7.78;;;18.70;99.00;;;;;;4957490;28;20134;-79
2021/07/23 03:02:27;;;;;;;10.20;6.90;;;18.70;99.00;;;;;;4965991;28;20134;-80
2021/07/23 03:04:54;;;;;;;9.43;6.95;;;18.60;99.20;;;;;;4980790;28;20111;-80
2021/07/23 03:07:22;;;;;;;11.38;7.80;;;18.60;99.30;;;;;;4984646;28;20111;-80
2021/07/23 03:09:49;;;;;;;11.13;7.38;;;18.60;99.40;;;;;;4983205;28;20070;-78
2021/07/23 03:12:16;;;;;;;10.55;7.10;;;18.60;99.30;;;;;;4966553;28;20047;-79
2021/07/23 03:14:43;;;;;;;10.00;7.47;;;18.50;99.10;;;;;;4954859;29;20043;-77
2021/07/23 03:17:10;;;;;;;10.80;7.53;;;18.50;99.00;;;;;;4965825;28;20046;-79
2021/07/23 03:19:38;;;;;;;10.25;7.30;;;18.50;99.30;;;;;;4965007;28;20047;-78
2021/07/23 03:22:05;;;;;;;10.73;7.57;;;18.40;99.30;;;;;;4955055;28;20090;-78
2021/07/23 03:24:35;;;;;;;10.75;7.20;;;18.40;99.50;;;;;;4974150;28;20207;-78
2021/07/23 03:27:03;;;;;;;9.15;6.40;;;18.40;99.60;;;;;;4958154;28;20058;-79
2021/07/23 03:29:30;;;;;;;10.20;7.20;;;18.40;99.70;;;;;;4954020;28;20406;-79
2021/07/23 03:31:57;;;;;;;10.13;7.10;;;18.40;99.60;;;;;;4954331;29;20066;-79
2021/07/23 03:34:24;;;;;;;10.82;6.97;;;18.40;99.60;;;;;;4954337;29;20091;-78
2021/07/23 03:36:51;;;;;;;11.80;7.75;;;18.40;99.60;;;;;;4964058;28;20138;-78
2021/07/23 03:39:19;;;;;;;10.95;7.80;;;18.40;99.30;;;;;;4973760;28;20461;-78
2021/07/23 03:41:47;;;;;;;10.48;7.25;;;18.40;99.20;;;;;;4957488;28;20224;-79
2021/07/23 03:44:14;;;;;;;10.88;7.90;;;18.40;99.10;;;;;;4958520;28;20057;-79
2021/07/23 03:46:41;;;;;;;10.52;7.45;;;18.40;99.00;;;;;;4965421;28;20047;-78
2021/07/23 03:49:08;;;;;;;10.25;7.35;;;18.30;99.00;;;;;;4954445;29;20058;-78
2021/07/23 03:51:35;;;;;;;10.13;7.13;;;18.20;99.10;;;;;;4966219;28;20153;-79
2021/07/23 03:54:02;;;;;;;10.32;6.95;;;18.20;99.20;;;;;;4973355;28;20043;-77
2021/07/23 03:56:29;;;;;;;9.93;6.65;;;18.10;99.20;;;;;;4958127;28;20053;-79
2021/07/23 03:58:59;;;;;;;10.02;7.50;;;18.10;99.30;;;;;;4954220;29;20134;-78
2021/07/23 04:01:26;;;;;;;10.93;7.40;;;18.00;99.20;;;;;;4952612;28;20412;-79
2021/07/23 04:03:53;;;;;;;10.05;7.03;;;18.00;99.20;;;;;;4956526;29;20126;-78
2021/07/23 04:06:20;;;;;;;9.93;7.32;;;17.90;99.10;;;;;;4958973;28;20069;-78
2021/07/23 04:08:47;;;;;;;9.77;7.15;;;17.80;99.20;;;;;;4956283;29;20066;-78
2021/07/23 04:11:15;;;;;;;9.07;6.57;;;17.70;99.30;;;;;;4971700;28;20137;-78
2021/07/23 04:13:43;;;;;;;9.88;6.68;;;17.70;99.50;;;;;;4975418;28;20048;-78
2021/07/23 04:16:11;;;;;;;10.90;7.45;;;17.60;99.90;;;;;;4974648;28;20138;-79
2021/07/23 04:18:38;;;;;;;10.93;7.40;;;17.60;99.90;;;;;;4968402;28;20549;-80
2021/07/23 04:21:06;;;;;;;10.82;7.63;;;17.60;99.90;;;;;;4956022;29;20138;-80
2021/07/23 04:23:33;;;;;;;11.52;7.10;;;17.60;99.90;;;;;;4965826;28;20137;-80
2021/07/23 04:26:00;;;;;;;10.65;7.43;;;17.60;99.90;;;;;;4974579;28;20479;-81
2021/07/23 04:28:27;;;;;;;11.30;7.28;;;17.70;99.90;;;;;;4975089;28;20142;-80
2021/07/23 04:30:54;;;;;;;9.60;6.97;;;17.70;99.90;;;;;;4974978;28;20474;-81
2021/07/23 04:33:23;;;;;;;10.60;7.75;;;17.70;99.90;;;;;;4975310;28;20047;-81
2021/07/23 04:35:50;;;;;;;11.10;7.93;;;17.70;99.90;;;;;;4975078;28;20149;-81
2021/07/23 04:38:17;;;;;;;11.38;8.00;;;17.70;99.90;;;;;;4965136;28;20507;-81
2021/07/23 04:40:44;;;;;;;13.73;8.27;;;17.80;99.90;;;;;;4955913;29;20142;-81
2021/07/23 04:43:11;;;;;;;12.95;8.52;;;17.80;99.90;;;;;;4955154;29;20150;-81
2021/07/23 04:45:38;;;;;;;11.90;7.70;;;17.80;99.90;;;;;;4955669;29;20059;-79
2021/07/23 04:48:06;;;;;;;13.45;9.00;;;17.80;99.90;;;;;;4955718;29;20047;-80
2021/07/23 04:50:34;;;;;;;14.10;8.82;;;17.70;99.90;;;;;;4955601;29;20110;-81
2021/07/23 04:53:01;;;;;;;12.57;7.95;;;17.70;99.90;;;;;;4964995;28;20065;-81
2021/07/23 04:55:29;;;;;;;12.15;7.93;;;17.60;99.90;;;;;;4974806;28;20129;-81
2021/07/23 04:57:56;;;;;;;11.68;8.30;;;17.60;99.90;;;;;;4974661;28;20130;-81
2021/07/23 05:00:23;;;;;;;14.98;7.90;;;17.60;99.90;;;;;;4974985;28;20070;-80
2021/07/23 05:02:54;;;;;;;12.30;8.20;;;17.70;99.90;;;;;;4974660;28;20556;-81
2021/07/23 05:05:23;;;;;;;12.40;8.38;;;17.70;99.90;;;;;;4974774;28;20150;-80
2021/07/23 05:07:52;;;;;;;13.13;8.52;;;17.80;99.90;;;;;;4964148;28;20047;-82
2021/07/23 05:10:19;;;;;;;13.80;8.45;;;17.80;99.90;;;;;;4956064;29;20130;-81
2021/07/23 05:12:46;;;;;;;11.88;8.10;;;17.90;99.90;;;;;;4956747;28;20135;-81
2021/07/23 05:15:13;;;;;;;14.00;8.88;;;17.90;99.90;;;;;;4973695;28;20133;-81
2021/07/23 05:17:42;;;;;;;12.57;8.93;;;17.90;99.90;;;;;;4974806;28;20133;-80
2021/07/23 05:20:10;;;;;;;13.15;8.93;;;17.90;99.90;;;;;;4974713;28;20055;-80
2021/07/23 05:22:38;;;;;;;12.75;9.15;;;17.90;99.90;;;;;;4974914;28;20142;-80
2021/07/23 05:25:09;;;;;;;14.13;8.85;;;17.90;99.90;;;;;;4974268;28;20627;-80
2021/07/23 05:27:36;;;;;;;15.10;9.25;;;17.80;99.90;;;;;;4974208;28;20046;-80
2021/07/23 05:30:05;;;;;;;12.73;8.45;;;17.80;99.90;;;;;;4954688;28;20043;-80
2021/07/23 05:32:32;;;;;;;13.50;8.85;;;17.80;99.90;;;;;;4953963;29;20163;-81
2021/07/23 05:34:59;;;;;;;13.52;9.75;;;17.80;99.90;;;;;;4954940;29;20126;-81
2021/07/23 05:37:26;;;;;;;13.57;9.35;;;17.80;99.90;;;;;;4955360;29;20137;-80
2021/07/23 05:39:53;;;;;;;11.30;8.05;;;17.80;99.90;;;;;;4954817;29;20050;-80
2021/07/23 05:42:22;;;;;;;13.70;8.50;;;17.80;99.90;;;;;;4954893;29;20584;-81
2021/07/23 05:44:49;;;;;;;12.70;8.63;;;17.90;99.90;;;;;;4973081;28;20143;-81
2021/07/23 05:47:16;;;;;;;13.82;9.93;;;18.00;99.90;;;;;;4974452;28;20047;-81
2021/07/23 05:49:43;;;;;;;16.88;9.50;;;18.00;99.90;;;;;;4974556;28;20057;-81
2021/07/23 05:52:10;;;;;;;12.18;8.73;;;18.00;99.90;;;;;;4974369;28;20137;-80
2021/07/23 05:54:37;;;;;;;14.10;9.20;;;18.10;99.90;;;;;;4973997;28;20141;-81
2021/07/23 05:57:05;;;;;;;15.65;10.45;;;18.20;99.90;;;;;;4974591;28;20046;-81
2021/07/23 05:59:33;;;;;;;15.32;9.77;;;18.20;99.90;;;;;;4956321;28;20086;-81
2021/07/23 06:02:00;;;;;;;14.25;10.00;;;18.20;99.90;;;;;;4954950;29;20130;-81
2021/07/23 06:04:27;;;;;;;13.30;9.02;;;18.30;99.90;;;;;;4954739;29;20560;-81
2021/07/23 06:06:54;;;;;;;13.88;9.35;;;18.30;99.90;;;;;;4954782;29;20043;-81
2021/07/23 06:09:22;;;;;;;13.10;8.70;;;18.30;99.90;;;;;;4954649;29;20110;-79
2021/07/23 06:11:49;;;;;;;16.48;9.55;;;18.40;99.90;;;;;;4955028;29;20142;-81
2021/07/23 06:14:16;;;;;;;16.00;10.07;;;18.50;99.90;;;;;;4955026;28;20453;-81
2021/07/23 06:16:44;;;;;;;16.50;9.90;;;18.50;99.50;;;;;;4955292;29;20138;-81
2021/07/23 06:19:11;;;;;;;18.23;11.50;;;18.50;99.50;;;;;;4954845;28;20133;-80
2021/07/23 06:21:38;;;;;;;14.63;9.57;;;18.50;99.30;;;;;;4954788;29;20078;-81
2021/07/23 06:24:05;;;;;;;14.65;9.93;;;18.40;99.30;;;;;;4954837;28;20155;-81
2021/07/23 06:26:33;;;;;;;15.82;10.02;;;18.40;99.30;;;;;;4957919;28;20130;-81
2021/07/23 06:29:00;;;;;;;14.35;10.10;;;18.50;99.40;;;;;;4958085;29;20071;-81
2021/07/23 06:31:27;;;;;;;14.45;9.30;;;18.50;99.70;;;;;;4958135;29;20083;-80
2021/07/23 06:33:55;;;;;;;13.40;9.07;;;18.50;99.70;;;;;;4959037;28;20145;-80
2021/07/23 06:36:22;;;;;;;16.67;9.50;;;18.50;99.60;;;;;;4963541;28;20076;-81
2021/07/23 06:38:49;;;;;;;12.77;8.30;;;18.60;99.50;;;;;;4968256;29;20067;-80
2021/07/23 06:41:16;;;;;;;11.27;7.97;;;18.70;99.60;;;;;;4968387;29;20070;-81
2021/07/23 06:43:43;;;;;;;11.55;7.63;;;18.80;99.60;;;;;;4967888;29;20099;-81
2021/07/23 06:46:11;;;;;;;13.52;8.98;;;18.90;99.50;;;;;;4962127;29;20083;-81
2021/07/23 06:48:38;;;;;;;14.05;10.07;;;19.00;99.30;;;;;;4959734;28;20126;-81
2021/07/23 06:51:06;;;;;;;16.40;10.77;;;19.00;98.90;;;;;;4976520;28;20053;-81
2021/07/23 06:53:33;;;;;;;15.07;10.52;;;19.10;98.60;;;;;;4977061;28;20053;-81
2021/07/23 06:56:00;;;;;;;15.50;9.40;;;19.10;98.40;;;;;;4976884;28;20154;-82
2021/07/23 06:58:27;;;;;;;13.80;8.93;;;19.10;98.40;;;;;;4976673;28;20497;-81
2021/07/23 07:00:54;;;;;;;16.80;9.75;;;19.20;98.50;;;;;;4976964;28;20142;-79
2021/07/23 07:03:21;;;;;;;13.82;9.38;;;19.20;98.40;;;;;;4974977;28;20137;-81
2021/07/23 07:05:50;;;;;;;12.27;8.55;;;19.20;98.20;;;;;;4976636;28;20159;-80
2021/07/23 07:08:19;;;;;;;12.65;8.40;;;19.30;98.20;;;;;;4976499;28;20137;-80
2021/07/23 07:10:46;;;;;;;10.77;7.80;;;19.40;98.40;;;;;;4976776;28;20568;-81
2021/07/23 07:13:13;;;;;;;11.88;7.85;;;19.40;98.30;;;;;;4976786;28;20134;-81
2021/07/23 07:15:40;;;;;;;15.13;9.25;;;19.50;98.10;;;;;;4976613;28;20130;-81
2021/07/23 07:18:07;;;;;;;12.63;8.73;;;19.60;97.90;;;;;;4974041;28;20125;-80
2021/07/23 07:20:34;;;;;;;14.40;9.27;;;19.70;97.80;;;;;;4957145;29;20441;-80
2021/07/23 07:23:02;;;;;;;11.27;7.68;;;19.70;97.70;;;;;;4956854;28;20133;-81
2021/07/23 07:25:31;;;;;;;17.25;10.40;;;19.80;97.70;;;;;;4956832;29;20074;-81
2021/07/23 07:28:00;;;;;;;13.15;8.70;;;19.80;97.40;;;;;;4958257;28;20063;-80
2021/07/23 07:30:27;;;;;;;13.40;9.18;;;19.90;97.40;;;;;;4957283;29;20138;-82
2021/07/23 07:32:54;;;;;;;16.80;9.40;;;20.00;97.20;;;;;;4956774;29;20470;-80
2021/07/23 07:35:21;;;;;;;14.18;9.35;;;20.00;97.10;;;;;;4956384;28;20134;-80
2021/07/23 07:37:48;;;;;;;11.95;8.13;;;20.10;96.90;;;;;;4957750;28;20129;-80
2021/07/23 07:40:15;;;;;;;14.27;9.32;;;20.10;96.90;;;;;;4971301;28;20131;-80
2021/07/23 07:42:43;;;;;;;13.50;9.20;;;20.20;96.70;;;;;;4968656;28;20050;-81
2021/07/23 07:45:12;;;;;;;13.88;8.18;;;20.20;96.60;;;;;;4976000;28;20146;-79
2021/07/23 07:47:39;;;;;;;12.60;8.05;;;20.20;96.70;;;;;;4975546;28;20130;-78
2021/07/23 07:50:08;;;;;;;12.38;8.73;;;20.30;96.80;;;;;;4975713;28;20153;-81
2021/07/23 07:52:35;;;;;;;13.23;8.07;;;20.40;96.90;;;;;;4975990;28;20125;-81
2021/07/23 07:55:02;;;;;;;11.00;7.30;;;20.50;96.90;;;;;;4974180;28;20142;-81
2021/07/23 07:57:29;;;;;;;11.13;7.30;;;20.60;96.70;;;;;;4975592;28;20133;-81
2021/07/23 07:59:57;;;;;;;11.35;7.00;;;20.60;96.60;;;;;;4977568;28;20054;-81
2021/07/23 08:02:25;;;;;;;11.25;7.45;;;20.70;96.40;;;;;;4972343;28;20051;-82
2021/07/23 08:04:52;;;;;;;11.95;7.75;;;20.70;96.20;;;;;;4967192;28;20047;-81
2021/07/23 08:07:20;;;;;;;9.63;6.97;;;20.80;95.90;;;;;;4966910;28;20051;-80
2021/07/23 08:09:51;;;;;;;12.10;7.45;;;20.90;95.80;;;;;;4967178;28;20134;-81
2021/07/23 08:12:19;;;;;;;9.73;6.97;;;20.90;95.60;;;;;;4967058;28;20047;-81
2021/07/23 08:14:46;;;;;;;10.38;7.03;;;21.00;95.60;;;;;;4965589;29;20058;-81
2021/07/23 08:17:15;;;;;;;10.52;7.30;;;21.00;95.60;;;;;;4974312;28;20070;-80
2021/07/23 08:19:42;;;;;;;10.02;6.85;;;21.10;95.60;;;;;;4985004;28;20074;-80
2021/07/23 08:22:10;;;;;;;10.98;7.13;;;21.20;95.50;;;;;;4977086;28;20125;-80
2021/07/23 08:24:38;;;;;;;11.15;8.02;;;21.30;95.40;;;;;;4976129;28;20111;-78
2021/07/23 08:27:06;;;;;;;11.70;8.05;;;21.30;95.30;;;;;;4976532;28;20049;-79
2021/07/23 08:29:33;;;;;;;10.65;6.95;;;21.40;95.30;;;;;;4979158;28;20106;-79
2021/07/23 08:32:07;;;;;;;10.75;7.78;;;21.40;95.40;;;;;;4982604;28;20051;-80
2021/07/23 08:34:36;;;;;;;11.48;8.00;;;21.50;95.30;;;;;;4983569;28;20089;-79
2021/07/23 08:37:03;;;;;;;12.55;8.68;;;21.50;95.20;;;;;;4981925;28;20556;-79
2021/07/23 08:39:30;;;;;;;11.02;7.50;;;21.60;94.90;;;;;;4975889;28;20126;-80
2021/07/23 08:41:57;;;;;;;11.50;7.70;;;21.70;94.80;;;;;;4975367;28;20082;-80
2021/07/23 08:44:26;;;;;;;11.77;7.63;;;21.70;94.80;;;;;;4982393;28;20058;-76
2021/07/23 08:46:53;;;;;;;10.00;6.85;;;21.80;94.50;;;;;;4965240;28;20043;-77
2021/07/23 08:49:21;;;;;;;10.00;7.10;;;21.90;94.80;;;;;;4974503;28;20074;-76
2021/07/23 08:51:53;;;;;;;10.85;7.10;;;22.00;94.80;;;;;;4984848;28;20074;-77
2021/07/23 08:54:20;;;;;;;11.95;7.85;;;22.00;94.70;;;;;;4985213;28;20106;-77
2021/07/23 08:56:48;;;;;;;12.68;7.95;;;22.10;94.10;;;;;;4985340;28;20525;-75
2021/07/23 08:59:16;;;;;;;11.50;6.88;;;22.20;93.90;;;;;;4981207;28;20102;-76
2021/07/23 09:01:59;;;;;;;11.30;7.47;;;22.20;94.00;;;;;;4985843;28;20452;-76
2021/07/23 09:04:30;;;;;;;11.75;7.70;;;22.20;94.00;;;;;;4985281;28;20085;-76
2021/07/23 09:08:02;;;;;;;11.07;7.72;;;22.30;93.70;;;;;;4985863;28;20188;-76
2021/07/23 09:10:32;;;;;;;9.85;7.38;;;22.50;93.60;;;;;;4982056;28;20477;-75
2021/07/23 09:13:02;;;;;;;12.40;7.43;;;22.50;93.00;;;;;;4978587;28;20126;-75
2021/07/23 09:15:33;;;;;;;12.82;8.25;;;22.60;92.80;;;;;;4962892;29;20046;-78
2021/07/23 09:18:02;;;;;;;10.30;7.38;;;22.60;92.70;;;;;;4963392;29;20100;-75
2021/07/23 09:20:30;;;;;;;10.55;7.38;;;22.60;92.70;;;;;;4964017;29;20062;-79
2021/07/23 09:23:00;;;;;;;12.07;7.68;;;22.70;92.60;;;;;;4962108;28;20090;-76
2021/07/23 09:25:45;;;;;;;12.35;7.55;;;22.80;92.40;;;;;;4965013;28;20143;-76
2021/07/23 09:28:32;;;;;;;10.15;7.55;;;22.80;92.40;;;;;;4978132;28;20043;-76
2021/07/23 09:31:01;;;;;;;12.70;8.48;;;22.90;92.10;;;;;;4965168;28;20074;-76
2021/07/23 09:33:34;;;;;;;9.85;6.90;;;22.90;91.70;;;;;;4974199;28;20070;-76
2021/07/23 09:36:04;;;;;;;11.18;7.88;;;23.00;91.90;;;;;;4982079;28;20515;-75
2021/07/23 09:38:40;;;;;;;10.18;7.20;;;23.10;91.60;;;;;;4973419;28;20401;-75
2021/07/23 09:41:11;;;;;;;10.15;7.00;;;23.10;91.50;;;;;;4971004;28;20496;-75
2021/07/23 09:43:41;;;;;;;10.20;6.88;;;23.20;91.60;;;;;;4963397;28;20126;-77
2021/07/23 09:46:26;;;;;;;9.85;6.43;;;23.20;91.60;;;;;;4953162;28;20136;-75
2021/07/23 09:48:55;;;;;;;10.85;8.10;;;23.30;91.90;;;;;;4961620;28;20047;-76
2021/07/23 09:51:25;;;;;;;12.77;8.30;;;23.40;91.00;;;;;;4958895;28;20130;-77
2021/07/23 09:53:54;;;;;;;11.52;7.10;;;23.40;90.80;;;;;;4952258;28;20050;-77
2021/07/23 09:56:25;;;;;;;10.38;7.40;;;23.50;91.00;;;;;;4965360;28;20479;-76
2021/07/23 09:59:01;;;;;;;11.73;7.90;;;23.50;90.50;;;;;;4965537;28;20074;-80
2021/07/23 10:01:38;;;;;;;10.75;7.80;;;23.60;90.30;;;;;;4964225;28;20133;-75
2021/07/23 10:04:12;;;;;;;8.85;6.22;;;23.60;90.30;;;;;;4971071;28;20051;-78
2021/07/23 10:06:49;;;;;;;10.13;6.65;;;23.60;90.20;;;;;;4962559;28;20050;-77
2021/07/23 10:09:23;;;;;;;8.05;6.40;;;23.70;90.30;;;;;;4961083;28;20514;-78
2021/07/23 10:11:51;;;;;;;8.43;6.03;;;23.70;90.30;;;;;;4962965;28;20054;-77
2021/07/23 10:14:23;;;;;;;10.77;7.63;;;23.80;90.40;;;;;;4961181;28;20471;-89
2021/07/23 10:16:51;;;;;;;12.80;8.05;;;23.90;89.90;;;;;;4957159;28;20059;-90
2021/07/23 10:19:22;;;;;;;9.70;6.40;;;23.90;89.30;;;;;;4974975;28;20135;-80
2021/07/23 10:21:49;;;;;;;11.90;6.50;;;23.90;89.60;;;;;;4960420;28;20477;-82
2021/07/23 10:24:18;;;;;;;9.65;6.45;;;24.00;89.90;;;;;;4958090;29;20138;-80
2021/07/23 10:26:46;;;;;;;10.65;7.38;;;24.10;90.00;;;;;;4964060;28;20053;-80
2021/07/23 10:29:15;;;;;;;9.32;6.60;;;24.10;88.00;;;;;;4961839;28;20401;-82
2021/07/23 10:31:46;;;;;;;9.32;5.85;;;24.20;87.50;;;;;;4957839;29;20134;-81
2021/07/23 10:34:30;;;;;;;11.23;7.05;;;24.20;87.40;;;;;;4958018;29;20061;-81
2021/07/23 10:36:58;;;;;;;8.80;6.50;;;24.20;87.30;;;;;;4958038;28;20048;-81
2021/07/23 10:39:25;;;;;;;9.85;6.22;;;24.30;87.50;;;;;;4957925;29;20134;-80
2021/07/23 10:42:31;;;;;;;11.05;7.30;;;24.40;87.90;;;;;;4966251;28;20489;-80
2021/07/23 10:45:00;;;;;;;10.82;7.22;;;24.40;87.20;;;;;;4916652;29;20075;-80
2021/07/23 10:47:39;;;;;;;10.05;6.78;;;24.40;86.30;;;;;;4965531;28;20473;-80
2021/07/23 10:50:13;;;;;;;10.20;7.07;;;24.50;86.70;;;;;;4977097;28;20051;-81
2021/07/23 10:52:40;;;;;;;10.10;7.47;;;24.60;87.10;;;;;;4976897;28;20092;-80
2021/07/23 10:55:21;;;;;;;8.93;6.40;;;24.60;85.90;;;;;;4976955;28;20139;-79
2021/07/23 10:58:39;;;;;;;9.52;6.28;;;24.60;85.80;;;;;;4977069;28;20047;-81
2021/07/23 11:01:07;;;;;;;10.48;6.47;;;24.70;85.30;;;;;;4976025;28;20086;-80
2021/07/23 11:03:58;;;;;;;8.27;5.65;;;24.80;84.10;;;;;;4976796;28;20134;-80
2021/07/23 11:06:38;;;;;;;8.18;5.57;;;24.90;84.30;;;;;;4976903;28;20137;-82
2021/07/23 11:09:09;;;;;;;8.77;6.10;;;25.00;84.90;;;;;;4976743;28;20054;-79
2021/07/23 11:11:36;;;;;;;9.50;6.22;;;25.00;84.60;;;;;;4976334;28;20061;-81
2021/07/23 11:14:18;;;;;;;9.77;6.80;;;25.10;84.90;;;;;;4976178;28;20134;-80
2021/07/23 11:16:47;;;;;;;9.20;6.57;;;25.20;84.40;;;;;;4976662;28;20407;-81
2021/07/23 11:19:23;;;;;;;10.43;6.95;;;25.20;84.00;;;;;;4976391;28;20074;-80
2021/07/23 11:21:50;;;;;;;10.23;7.38;;;25.30;82.60;;;;;;4976598;28;20046;-80
2021/07/23 11:24:17;;;;;;;10.07;6.65;;;25.30;81.90;;;;;;4976305;28;20133;-81
2021/07/23 11:26:52;;;;;;;9.40;6.82;;;25.30;81.50;;;;;;4976528;28;20089;-81
2021/07/23 11:29:32;;;;;;;9.35;6.20;;;25.30;80.40;;;;;;4969778;28;20051;-81
2021/07/23 11:32:11;;;;;;;11.30;7.80;;;25.40;79.60;;;;;;4956885;29;20486;-80
2021/07/23 11:34:41;;;;;;;9.98;7.15;;;25.40;78.40;;;;;;4957276;29;20130;-80
2021/07/23 11:37:17;;;;;;;9.63;6.90;;;25.40;78.40;;;;;;4956410;29;20062;-81
2021/07/23 11:39:55;;;;;;;9.60;6.28;;;25.50;78.40;;;;;;4957426;29;20085;-81
2021/07/23 11:42:23;;;;;;;8.27;6.10;;;25.50;78.60;;;;;;4963687;29;20083;-79
2021/07/23 11:44:55;;;;;;;8.80;6.05;;;25.60;79.80;;;;;;4979458;28;20097;-81
2021/07/23 11:47:32;;;;;;;7.60;5.68;;;25.70;80.50;;;;;;4989871;28;20061;-80
2021/07/23 11:50:01;;;;;;;10.60;7.10;;;25.80;80.90;;;;;;4986834;28;20047;-81
2021/07/23 11:52:29;;;;;;;9.77;7.43;;;25.90;79.10;;;;;;4973540;29;20078;-80
2021/07/23 11:54:59;;;;;;;11.80;7.90;;;25.90;78.10;;;;;;4956748;28;20090;-81
2021/07/23 11:57:26;;;;;;;10.45;7.25;;;25.90;77.80;;;;;;4956748;29;20055;-82
2021/07/23 11:59:53;;;;;;;9.27;6.85;;;26.00;78.20;;;;;;4956489;29;20079;-80
2021/07/23 12:02:26;;;;;;;9.57;6.13;;;26.00;76.80;;;;;;4956427;29;20131;-82
2021/07/23 12:05:05;;;;;;;7.68;5.50;;;26.10;77.60;;;;;;4956427;28;20047;-81
2021/07/23 12:07:32;;;;;;;8.73;5.35;;;26.20;78.10;;;;;;4956682;29;20087;-79
2021/07/23 12:10:02;;;;;;;8.02;5.72;;;26.30;78.40;;;;;;4956122;29;20515;-80
2021/07/23 12:12:29;;;;;;;9.80;7.10;;;26.40;78.40;;;;;;4956141;29;20135;-80
2021/07/23 12:15:03;;;;;;;8.20;5.72;;;26.50;76.80;;;;;;4956113;29;20114;-80
2021/07/23 12:17:31;;;;;;;7.88;5.68;;;26.70;76.70;;;;;;4956422;29;20142;-79
2021/07/23 12:19:58;;;;;;;8.57;6.03;;;26.80;77.30;;;;;;4966706;28;20519;-81
2021/07/23 12:22:27;;;;;;;10.48;6.68;;;26.90;75.90;;;;;;4974625;28;20069;-80
2021/07/23 12:24:54;;;;;;;7.53;5.88;;;26.90;74.60;;;;;;4974983;28;20153;-81
2021/07/23 12:27:23;;;;;;;8.20;6.45;;;27.00;74.90;;;;;;4975116;28;20138;-81
2021/07/23 12:29:51;;;;;;;7.88;5.82;;;27.10;74.80;;;;;;4975510;28;20082;-82
2021/07/23 12:32:23;;;;;;;8.27;6.00;;;27.20;74.10;;;;;;4975088;28;20054;-81
2021/07/23 12:34:57;;;;;;;9.63;6.15;;;27.30;73.60;;;;;;4961582;28;20057;-81
2021/07/23 12:37:26;;;;;;;9.93;7.72;;;27.40;73.20;;;;;;4970694;28;20047;-80
2021/07/23 12:39:57;;;;;;;10.32;6.80;;;27.60;70.70;;;;;;4963585;28;20130;-79
2021/07/23 12:42:26;;;;;;;9.90;6.50;;;27.60;70.40;;;;;;4968435;28;20043;-83
2021/07/23 12:44:53;;;;;;;7.85;5.47;;;27.70;70.30;;;;;;4970951;28;20497;-83
2021/07/23 12:47:22;;;;;;;7.47;4.85;;;27.70;71.00;;;;;;4970622;28;20067;-84